• Join FlightAware (Why Join?)
  • Login
  • US Flag 
04:15AM EDT


 

Airport Tracker/Info


-or-


 

Live Flight TrackerFlight Track Log ✈ ASQ4603 ✈ 24-Apr-2013 ✈ KIND - KCLE

Flight Track Log - Related Links

Times and Time Zones

All times are in EDT time to prevent confusion due to time zone crossing. See the ASQ4603 flight status page for this flight to view local times or setup timezone preferences in your user account.

Time Position Orientation Groundspeed Altitude Reporting Facility
EDT Latitude Longitude Course Direction KTS MPH feet Rate Location/Type
04:55PM 39.7000 -86.3000 201° Southwest 145 167 1,500  Level Indianapolis TRACON
04:57PM 39.6333 -86.3333 201° Southwest 223 257 5,200 2,280 Climbing Indianapolis TRACON
04:58PM 39.6000 -86.2833 131° Southeast 271 312 7,000 2,100 Climbing Indianapolis TRACON
04:58PM 39.6333 -86.2000 63° Northeast 296 341 9,300 1,740 Climbing Indianapolis TRACON
05:00PM 39.6667 -86.0556 73° East 326 375 10,900 1,140 Climbing Indianapolis Center
05:01PM 39.7022 -85.9275 70° East 375 432 12,000 1,200 Climbing Indianapolis Center
05:02PM 39.7372 -85.7906 72° East 395 455 13,400 1,320 Climbing Indianapolis Center
05:03PM 39.7703 -85.6481 73° East 408 470 14,800 1,200 Climbing Indianapolis Center
05:04PM 39.8047 -85.5017 73° East 421 484 16,000 1,140 Climbing Indianapolis Center
05:05PM 39.8378 -85.3519 74° East 430 495 17,200 1,200 Climbing Indianapolis Center
05:06PM 39.8792 -85.1711 73° East 445 512 18,500 1,200 Climbing Indianapolis Center
05:07PM 39.9164 -85.0108 73° East 456 525 19,700 1,140 Climbing Indianapolis Center
05:08PM 39.9511 -84.8444 75° East 471 542 20,900 1,200 Climbing Indianapolis Center
05:09PM 39.9867 -84.6708 75° East 485 558 22,200 1,020 Climbing Indianapolis Center
05:10PM 40.0264 -84.4933 74° East 499 574 23,000 360 Climbing Indianapolis Center
05:11PM 40.0667 -84.3064 74° East 528 608 23,000 -480 Level Indianapolis Center
05:12PM 40.1056 -84.1122 75° East 546 628 22,100 -1,560 Descending Indianapolis Center
05:13PM 40.1397 -83.9253 76° East 522 601 19,800 -1,620 Descending Indianapolis Center
05:14PM 40.1714 -83.7419 77° East 510 587 18,900 -420 Descending Indianapolis Center
05:15PM 40.2069 -83.5575 76° East 513 590 19,000  Climbing Indianapolis Center
05:16PM 40.2631 -83.3814 67° East 519 597 19,000  Level Indianapolis Center
05:17PM 40.3822 -83.2256 45° Northeast 513 590 19,000 -60 Level Indianapolis Center
05:18PM 40.4850 -83.0956 44° Northeast 509 586 18,900 -180 Descending Indianapolis Center
05:19PM 40.5736 -82.9778 45° Northeast 503 579 18,700 -660 Descending Indianapolis Center
05:20PM 40.6356 -82.9033 42° Northeast 502 578 17,900 -1,680 Descending Cleveland Center
05:21PM 40.7339 -82.7781 44° Northeast 475 547 16,100 -2,400 Descending Cleveland Center
05:22PM 40.8192 -82.6767 42° Northeast 434 499 13,100 -3,000 Descending Cleveland Center
05:23PM 40.8747 -82.6069 43° Northeast 425 489 11,300 -2,520 Descending Cleveland Center
05:23PM 40.9047 -82.5611 49° Northeast 420 483 10,600 -1,200 Descending Cleveland Center
05:24PM 40.9600 -82.4886 45° Northeast 406 467 10,000 -600 Descending Cleveland Center
05:24PM 40.9794 -82.4533 54° Northeast 407 468 10,000  Level Cleveland Center
05:25PM 41.0308 -82.3750 49° Northeast 404 465 10,000  Level Cleveland Center
05:25PM 41.0542 -82.3425 46° Northeast 407 468 10,000  Level Cleveland Center
05:26PM 41.1117 -82.2725 43° Northeast 409 471 10,000  Level Cleveland Center
05:26PM 41.1264 -82.2481 51° Northeast 407 468 10,000  Level Cleveland Center
05:27PM 41.1881 -82.1669 45° Northeast 385 443 10,000 -120 Level Cleveland Center
05:27PM 41.2008 -82.1478 48° Northeast 394 453 9,900 -1,200 Descending Cleveland Center
05:28PM 41.2539 -82.0800 44° Northeast 310 357 8,800 -1,380 Descending Cleveland Center
05:29PM 41.3197 -81.9903 46° Northeast 317 365 7,500 -900 Descending Cleveland Center
05:30PM 41.3869 -81.9419 28° Northeast 282 325 7,000 -300 Descending Cleveland Center
05:31PM 41.4750 -81.9106 15° North 270 311 6,900 -180 Descending Cleveland Center
05:32PM 41.5131 -81.8586 46° Northeast 223 257 6,700 -720 Descending Cleveland Center
05:33PM 41.5533 -81.7956 50° Northeast 212 244 5,700 -960 Descending Cleveland Center
05:34PM 41.5831 -81.7353 57° Northeast 207 238 4,800 -960 Descending Cleveland Center
05:35PM 41.5419 -81.6900 140° Southeast 210 242 3,800 -900 Descending Cleveland Center
05:36PM 41.4978 -81.7225 209° Southwest 175 201 3,000 -660 Descending Cleveland Center
05:37PM 41.4681 -81.7664 228° Southwest 149 171 2,500 -540 Descending Cleveland Center